Aérodrome :
LOGIN :

S'inscrire | Disclaimer

   EN    FR    IT 

 










Légende :    VFR   VFR Marginal   IFR   IFR Intensif   IFR Très Intensif
Visi : 
Plafond : 
>= 8 km
>= 3000ft
5 à 8 km
1000 à 3000 ft
1500m à 5 km
500 à 1000 ft
800 à 1500m
200 à 500 ft
< 800m
< 200 ft
Symboles :   Orages  Brouillard  Fortes neiges  Fortes précipitations  Vent > 20 kt
SIGMETs :   Divers  Orages  Givrage  Turbulence  Onde Orograph.  Cendres Volcan.







- Altitude de l'aérodrome : 992 ft


LIRV - Roma Viterbo Air Force Base (military)

METARs EXPIRÉS :
  • 221755Z 06015KT 3000 -RA BR FEW006 SCT012 BKN017 05/03 Q1000 RMK OVC MON E SE INVIS NC VIS MIN 3000 YLO

TAF TAF LIRV
Valide du 22 à 15h jusqu'au 23 à 00h UTC


221400Z 2215/2224 07010KT 7000 RA FEW015 BKN030
TEMPO 2215/2218 5000 SHRA BR FEW020CB BKN025
Pas de NOTAMs connus pour ce terrain.
1 SIGMET publié pour la FIR Roma (LIRR) :
 
Orages noyés dans la masse
LIRR SIGMET 6 VALID 221800/222200 LIIB
LIRR ROMA FIR EMBD TS FCST WI N3858 E01456 - N3658 E01501 - N3659 E01820 - N3852 E01818 - N3858 E01456 TOP ABV FL200 MOV E NC=



MET'MAP, la Météo Aéronautique d'un coup d'oeil ! - Copyright ORBIFLY Décembre 2007 - Disclaimer

ORBIFLY MET'MAP TEAM :

Programmation & Développement : Alexandra Zaïnal
Conception & Développement : Baudouin d'Aumeries
Co-Programmation & Développement : Marc-Olivier Méhu
Soutien technique & logistique : Manuel Goepfert

Contact : metmap@orbifly.com




SOURCES & CREDITS :

   NOAA